Time;durP1;ratioP1;P1;durP2;ratioP2;P2;SDS_P1;SDS_P2;PMS_P1;PMS_P2;Temp;Humidity;BMP_temperature;BMP_pressure;BME280_temperature;BME280_humidity;BME280_pressure;Samples;Min_cycle;Max_cycle;Signal;HPM_P1;HPM_P2
2023/08/07 00:00:18;;;;;;;0.25;0.20;;;;;;;21.35;62.26;99331.59;4879559;29;20045;-72
2023/08/07 00:02:46;;;;;;;0.52;0.30;;;;;;;21.35;62.69;99331.59;4879585;29;20080;-72
2023/08/07 00:05:17;;;;;;;0.73;0.22;;;;;;;21.35;62.63;99352.47;4879424;29;20109;-70
2023/08/07 00:07:47;;;;;;;0.47;0.20;;;;;;;21.35;62.76;99336.19;4879061;29;20045;-71
2023/08/07 00:10:15;;;;;;;0.17;0.15;;;;;;;21.34;63.00;99338.06;4879613;29;20220;-72
2023/08/07 00:12:43;;;;;;;0.60;0.30;;;;;;;21.34;62.73;99348.06;4879523;29;20064;-72
2023/08/07 00:15:14;;;;;;;0.60;0.22;;;;;;;21.32;62.80;99348.22;4879116;29;20053;-72
2023/08/07 00:17:42;;;;;;;0.10;0.10;;;;;;;21.31;62.83;99348.41;4879080;29;20052;-71
2023/08/07 00:20:11;;;;;;;0.60;0.28;;;;;;;21.29;62.97;99337.75;4878659;29;20052;-71
2023/08/07 00:22:42;;;;;;;1.13;0.30;;;;;;;21.29;62.87;99336.91;4878844;29;20052;-71
2023/08/07 00:25:11;;;;;;;0.65;0.28;;;;;;;21.30;63.04;99344.00;4878509;29;20068;-71
2023/08/07 00:27:41;;;;;;;0.82;0.45;;;;;;;21.29;62.96;99342.34;4879077;29;20049;-72
2023/08/07 00:30:10;;;;;;;0.22;0.22;;;;;;;21.28;62.55;99346.06;4878451;29;20111;-71
2023/08/07 00:32:38;;;;;;;0.60;0.20;;;;;;;21.27;62.79;99349.81;4878697;29;20522;-71
2023/08/07 00:35:08;;;;;;;0.75;0.20;;;;;;;21.24;62.55;99353.72;4878422;29;20136;-71
2023/08/07 00:37:36;;;;;;;0.20;0.13;;;;;;;21.21;62.40;99358.63;4878621;29;20080;-72
2023/08/07 00:40:05;;;;;;;0.52;0.20;;;;;;;21.21;62.44;99364.91;4878507;29;20136;-71
2023/08/07 00:42:35;;;;;;;0.55;0.30;;;;;;;21.20;62.64;99359.66;4878906;29;20080;-71
2023/08/07 00:45:04;;;;;;;0.40;0.17;;;;;;;21.18;62.19;99350.88;4878629;29;20057;-72
2023/08/07 00:47:33;;;;;;;0.40;0.20;;;;;;;21.17;62.44;99349.19;4878750;29;20049;-71
2023/08/07 00:50:04;;;;;;;0.57;0.20;;;;;;;21.15;62.50;99358.34;4878530;29;20076;-71
2023/08/07 00:52:33;;;;;;;0.52;0.25;;;;;;;21.15;62.22;99347.50;4878101;29;20049;-70
2023/08/07 00:55:03;;;;;;;1.05;0.28;;;;;;;21.15;62.14;99352.09;4877793;29;20565;-70
2023/08/07 00:57:31;;;;;;;0.43;0.30;;;;;;;21.15;62.67;99352.94;4878575;29;20064;-71
2023/08/07 01:00:02;;;;;;;0.47;0.20;;;;;;;21.15;62.41;99347.50;4878114;29;20059;-71
2023/08/07 01:02:33;;;;;;;1.40;0.20;;;;;;;21.15;62.58;99347.50;4878549;29;20055;-71
2023/08/07 01:05:02;;;;;;;0.88;0.30;;;;;;;21.13;62.29;99344.13;4878016;29;20053;-71
2023/08/07 01:07:30;;;;;;;0.30;0.13;;;;;;;21.14;62.32;99351.25;4877743;29;20136;-71
2023/08/07 01:10:03;;;;;;;0.45;0.20;;;;;;;21.13;62.53;99354.13;4877728;29;20539;-71
2023/08/07 01:12:34;;;;;;;0.73;0.10;;;;;;;21.13;62.72;99348.69;4876515;29;20049;-71
2023/08/07 01:15:13;;;;;;;0.20;0.10;;;;;;;21.11;62.40;99351.59;4877917;29;20049;-71
2023/08/07 01:17:43;;;;;;;0.70;0.30;;;;;;;21.09;62.54;99347.38;4878215;29;20049;-71
2023/08/07 01:20:12;;;;;;;0.80;0.20;;;;;;;21.10;62.41;99355.31;4878139;29;20077;-70
2023/08/07 01:22:41;;;;;;;1.75;0.20;;;;;;;21.09;62.31;99356.34;4877913;29;20056;-71
2023/08/07 01:25:10;;;;;;;0.20;0.20;;;;;;;21.09;62.47;99358.22;4877741;29;20155;-72
2023/08/07 01:27:45;;;;;;;0.45;0.20;;;;;;;21.09;62.46;99350.94;4878053;29;20049;-71
2023/08/07 01:30:22;;;;;;;0.47;0.20;;;;;;;21.08;62.48;99365.53;4878216;29;20538;-71
2023/08/07 01:32:59;;;;;;;0.65;0.20;;;;;;;21.08;62.34;99370.94;4878058;29;20143;-72
2023/08/07 01:35:34;;;;;;;0.75;0.20;;;;;;;21.07;62.67;99366.53;4878039;29;20053;-72
2023/08/07 01:38:04;;;;;;;0.43;0.20;;;;;;;21.06;62.27;99366.72;4878025;29;20088;-71
2023/08/07 01:40:34;;;;;;;0.10;0.10;;;;;;;21.06;62.42;99364.88;4878017;29;20049;-72
2023/08/07 01:43:02;;;;;;;0.43;0.20;;;;;;;21.04;62.38;99371.50;4878255;29;20059;-71
2023/08/07 01:45:31;;;;;;;0.10;0.10;;;;;;;21.03;61.82;99367.91;4877960;29;20080;-72
2023/08/07 01:48:00;;;;;;;0.20;0.20;;;;;;;21.02;61.96;99374.38;4877606;29;20525;-72
2023/08/07 01:50:31;;;;;;;0.10;0.10;;;;;;;21.01;62.14;99378.09;4877668;29;20053;-71
2023/08/07 01:53:00;;;;;;;0.55;0.15;;;;;;;20.98;62.14;99378.47;4877359;29;20417;-72
2023/08/07 01:55:29;;;;;;;0.20;0.13;;;;;;;20.99;62.35;99368.47;4877864;29;20051;-71
2023/08/07 01:57:58;;;;;;;0.20;0.15;;;;;;;20.98;62.31;99374.91;4876521;29;20139;-72
2023/08/07 02:00:26;;;;;;;0.47;0.20;;;;;;;20.98;62.13;99373.06;4877635;29;20045;-71
2023/08/07 02:02:55;;;;;;;0.35;0.10;;;;;;;20.99;62.43;99371.19;4877410;29;20146;-71
2023/08/07 02:05:23;;;;;;;0.40;0.25;;;;;;;21.00;62.26;99375.56;4877412;29;20101;-71
2023/08/07 02:07:51;;;;;;;0.43;0.10;;;;;;;20.99;62.29;99379.31;4879032;29;20056;-71
2023/08/07 02:10:20;;;;;;;0.40;0.10;;;;;;;20.97;62.52;99371.38;4880070;29;20061;-71
2023/08/07 02:12:50;;;;;;;0.85;0.20;;;;;;;20.92;62.53;99357.50;4881922;29;20152;-72
2023/08/07 02:15:18;;;;;;;1.17;0.30;;;;;;;20.97;61.93;99375.94;4881495;29;20049;-72
2023/08/07 02:17:46;;;;;;;0.30;0.28;;;;;;;20.93;61.79;99386.28;4881643;29;20053;-72
2023/08/07 02:20:15;;;;;;;0.30;0.20;;;;;;;20.90;61.61;99370.38;4881525;29;20053;-70
2023/08/07 02:22:43;;;;;;;0.57;0.15;;;;;;;20.91;61.81;99387.50;4881311;29;20053;-71
2023/08/07 02:25:11;;;;;;;0.38;0.13;;;;;;;20.90;62.03;99383.94;4880733;29;20428;-70
2023/08/07 02:27:39;;;;;;;0.10;0.10;;;;;;;20.90;62.01;99385.81;4880818;29;20131;-71
2023/08/07 02:30:11;;;;;;;0.10;0.10;;;;;;;20.90;61.77;99385.81;4880689;29;20135;-71
2023/08/07 02:32:43;;;;;;;0.52;0.20;;;;;;;20.89;61.83;99389.53;4881089;29;20188;-71
2023/08/07 02:35:12;;;;;;;0.35;0.20;;;;;;;20.86;61.60;99386.19;4880902;29;20109;-71
2023/08/07 02:37:40;;;;;;;0.38;0.15;;;;;;;20.85;61.36;99395.34;4881082;29;20072;-71
2023/08/07 02:40:10;;;;;;;0.08;0.00;;;;;;;20.84;61.32;99385.53;4880703;29;20523;-71
2023/08/07 02:42:39;;;;;;;0.65;0.20;;;;;;;20.84;61.30;99388.22;4880803;29;20084;-71
2023/08/07 02:45:09;;;;;;;0.30;0.20;;;;;;;20.80;61.12;99381.47;4881100;29;20157;-72
2023/08/07 02:47:37;;;;;;;0.10;0.10;;;;;;;20.82;61.58;99381.28;4880856;29;20053;-71
2023/08/07 02:50:07;;;;;;;0.38;0.10;;;;;;;20.81;61.49;99379.59;4880527;29;20049;-70
2023/08/07 02:52:35;;;;;;;0.50;0.28;;;;;;;20.84;61.58;99395.50;4880562;29;20061;-71
2023/08/07 02:55:06;;;;;;;1.05;0.32;;;;;;;20.83;61.50;99385.69;4880117;29;20416;-71
2023/08/07 02:57:36;;;;;;;;;;;;;;;20.82;61.47;99398.38;4880477;29;20131;-72
2023/08/07 03:00:06;;;;;;;0.40;0.22;;;;;;;20.82;61.49;99400.25;4878933;29;20018;-71
2023/08/07 03:02:36;;;;;;;0.35;0.20;;;;;;;20.82;61.45;99392.13;4880305;29;20055;-71
2023/08/07 03:05:08;;;;;;;0.65;0.35;;;;;;;20.81;61.30;99399.41;4880595;29;20053;-71
2023/08/07 03:07:37;;;;;;;0.50;0.30;;;;;;;20.79;61.26;99398.75;4879981;29;20060;-72
2023/08/07 03:10:07;;;;;;;0.22;0.22;;;;;;;20.80;61.10;99396.88;4879867;29;20049;-71
2023/08/07 03:12:35;;;;;;;0.47;0.20;;;;;;;20.79;61.41;99395.19;4879905;29;20059;-72
2023/08/07 03:15:03;;;;;;;0.63;0.25;;;;;;;20.79;61.18;99389.78;4879182;29;20132;-71
2023/08/07 03:17:32;;;;;;;0.40;0.20;;;;;;;20.79;61.50;99395.19;4879578;29;20060;-71
2023/08/07 03:20:01;;;;;;;0.73;0.32;;;;;;;20.79;61.30;99396.03;4879309;29;20464;-71
2023/08/07 03:22:32;;;;;;;0.20;0.13;;;;;;;20.80;61.20;99388.75;4879560;29;20053;-70
2023/08/07 03:25:01;;;;;;;0.88;0.25;;;;;;;20.79;61.32;99389.78;4879366;29;20056;-71
2023/08/07 03:27:29;;;;;;;0.10;0.10;;;;;;;20.78;61.07;99394.34;4879541;29;20487;-71
2023/08/07 03:29:58;;;;;;;0.20;0.20;;;;;;;20.75;61.19;99393.84;4879839;29;20053;-70
2023/08/07 03:32:26;;;;;;;0.70;0.30;;;;;;;20.74;60.75;99392.16;4880091;29;20045;-71
2023/08/07 03:34:54;;;;;;;0.20;0.20;;;;;;;20.72;60.58;99394.22;4879939;29;20417;-71
2023/08/07 03:37:26;;;;;;;0.57;0.20;;;;;;;20.70;60.96;99385.44;4880294;29;20057;-71
2023/08/07 03:39:54;;;;;;;1.30;0.40;;;;;;;20.67;60.41;99402.06;4879990;29;20136;-71
2023/08/07 03:42:23;;;;;;;0.82;0.38;;;;;;;20.65;60.81;99401.34;4879501;29;20134;-72
2023/08/07 03:44:51;;;;;;;0.30;0.30;;;;;;;20.64;60.93;99392.38;4879519;29;20044;-71
2023/08/07 03:47:19;;;;;;;0.45;0.40;;;;;;;20.64;60.42;99405.09;4879428;29;20121;-71
2023/08/07 03:49:47;;;;;;;2.92;0.45;;;;;;;20.63;60.57;99411.53;4879859;29;20081;-72
2023/08/07 03:52:17;;;;;;;0.28;0.20;;;;;;;20.61;60.35;99402.75;4879306;29;20061;-72
2023/08/07 03:54:47;;;;;;;0.20;0.20;;;;;;;20.59;60.40;99411.06;4879440;29;20056;-70
2023/08/07 03:57:15;;;;;;;0.20;0.20;;;;;;;20.60;60.16;99420.88;4879416;29;20465;-70
2023/08/07 03:59:43;;;;;;;0.50;0.30;;;;;;;20.58;60.40;99415.63;4878824;29;20411;-70
2023/08/07 04:02:11;;;;;;;0.15;0.15;;;;;;;20.60;60.30;99403.78;4878879;29;20125;-71
2023/08/07 04:04:40;;;;;;;0.35;0.30;;;;;;;20.58;60.43;99418.34;4878955;29;20049;-70
2023/08/07 04:07:08;;;;;;;0.40;0.30;;;;;;;20.56;60.29;99417.69;4879164;29;20061;-71
2023/08/07 04:09:36;;;;;;;0.20;0.20;;;;;;;20.56;60.01;99416.84;4878822;29;20049;-71
2023/08/07 04:12:07;;;;;;;0.50;0.30;;;;;;;20.55;60.27;99426.81;4878793;29;20128;-71
2023/08/07 04:14:38;;;;;;;0.73;0.40;;;;;;;20.54;59.93;99422.41;4878608;29;20056;-72
2023/08/07 04:17:07;;;;;;;0.38;0.25;;;;;;;20.52;60.04;99420.91;4878533;29;20052;-71
2023/08/07 04:19:35;;;;;;;1.20;0.38;;;;;;;20.53;59.98;99422.59;4878635;29;20049;-70
2023/08/07 04:22:03;;;;;;;0.40;0.22;;;;;;;20.54;60.10;99424.28;4878445;29;20055;-71
2023/08/07 04:24:31;;;;;;;0.43;0.30;;;;;;;20.53;60.12;99423.44;4878381;29;20171;-71
2023/08/07 04:27:00;;;;;;;0.45;0.30;;;;;;;20.53;60.16;99442.41;4878325;29;20056;-70
2023/08/07 04:29:30;;;;;;;1.52;0.57;;;;;;;20.52;60.26;99429.03;4878583;29;20056;-70
2023/08/07 04:31:59;;;;;;;0.57;0.45;;;;;;;20.52;60.04;99426.31;4877886;29;20049;-70
2023/08/07 04:34:27;;;;;;;1.65;0.45;;;;;;;20.54;60.55;99445.94;4878664;29;20124;-71
2023/08/07 04:36:56;;;;;;;0.75;0.40;;;;;;;20.53;60.08;99438.84;4878163;29;20050;-70
2023/08/07 04:39:26;;;;;;;0.52;0.38;;;;;;;20.53;60.46;99445.09;4877860;29;20053;-70
2023/08/07 04:41:54;;;;;;;0.88;0.50;;;;;;;20.53;60.60;99442.41;4878300;29;20045;-71
2023/08/07 04:44:22;;;;;;;0.73;0.50;;;;;;;20.52;60.60;99443.41;4878398;29;20080;-70
2023/08/07 04:46:53;;;;;;;0.82;0.57;;;;;;;20.52;60.70;99443.41;4878356;29;20064;-70
2023/08/07 04:49:22;;;;;;;0.75;0.40;;;;;;;20.53;60.47;99439.69;4878926;29;20088;-72
2023/08/07 04:51:50;;;;;;;0.88;0.50;;;;;;;20.52;60.70;99438.00;4877932;29;20073;-71
2023/08/07 04:54:18;;;;;;;1.17;0.40;;;;;;;20.52;60.28;99437.16;4877972;29;20097;-71
2023/08/07 04:56:47;;;;;;;0.75;0.43;;;;;;;20.50;60.35;99450.03;4877967;29;20056;-71
2023/08/07 04:59:15;;;;;;;0.98;0.40;;;;;;;20.48;60.37;99442.09;4878161;29;20049;-71
2023/08/07 05:01:43;;;;;;;1.65;0.38;;;;;;;20.47;60.00;99439.56;4878101;29;20888;-71
2023/08/07 05:04:13;;;;;;;1.80;0.40;;;;;;;20.46;60.22;99438.72;4878144;29;20081;-72
2023/08/07 05:06:41;;;;;;;0.38;0.30;;;;;;;20.46;60.28;99454.97;4876479;29;20092;-71
2023/08/07 05:09:11;;;;;;;0.85;0.43;;;;;;;20.46;60.26;99444.13;4878187;29;20053;-71
2023/08/07 05:11:39;;;;;;;0.88;0.40;;;;;;;20.48;60.48;99455.63;4878351;29;20415;-72
2023/08/07 05:14:08;;;;;;;0.50;0.32;;;;;;;20.47;60.43;99455.81;4876779;29;20057;-71
2023/08/07 05:16:37;;;;;;;1.45;0.50;;;;;;;20.47;60.40;99445.81;4877783;29;20100;-71
2023/08/07 05:19:08;;;;;;;2.92;0.75;;;;;;;20.47;60.17;99451.25;4876787;29;20161;-71
2023/08/07 05:21:38;;;;;;;0.50;0.40;;;;;;;20.48;60.57;99452.09;4877581;29;20376;-71
2023/08/07 05:24:06;;;;;;;1.35;0.35;;;;;;;20.48;60.39;99449.38;4877572;29;20068;-71
2023/08/07 05:26:34;;;;;;;1.30;0.60;;;;;;;20.49;60.64;99449.19;4877826;29;20065;-71
2023/08/07 05:29:03;;;;;;;0.50;0.43;;;;;;;20.48;60.37;99450.22;4877789;29;20059;-72
2023/08/07 05:31:32;;;;;;;2.35;0.52;;;;;;;20.48;60.57;99463.75;4877480;29;20523;-70
2023/08/07 05:34:00;;;;;;;1.00;0.45;;;;;;;20.47;60.47;99467.50;4877129;29;20052;-69
2023/08/07 05:36:29;;;;;;;0.63;0.40;;;;;;;20.48;60.68;99460.22;4877264;29;20060;-70
2023/08/07 05:38:59;;;;;;;1.15;0.50;;;;;;;20.48;60.28;99463.75;4877175;29;20132;-70
2023/08/07 05:41:27;;;;;;;1.60;0.60;;;;;;;20.47;60.17;99486.47;4877097;29;20131;-70
2023/08/07 05:43:55;;;;;;;0.68;0.50;;;;;;;20.46;60.47;99471.22;4876512;29;20060;-70
2023/08/07 05:46:24;;;;;;;1.23;0.50;;;;;;;20.45;60.17;99477.63;4877026;29;20113;-70
2023/08/07 05:48:52;;;;;;;0.90;0.57;;;;;;;20.44;60.02;99481.38;4877248;29;20052;-70
2023/08/07 05:51:20;;;;;;;0.70;0.43;;;;;;;20.43;60.08;99482.38;4877092;29;20065;-70
2023/08/07 05:53:49;;;;;;;2.95;0.82;;;;;;;20.42;60.15;99486.09;4877565;29;20076;-71
2023/08/07 05:56:18;;;;;;;1.00;0.68;;;;;;;20.41;59.92;99478.13;4877121;29;20053;-70
2023/08/07 05:58:49;;;;;;;1.05;0.50;;;;;;;20.40;59.93;99493.53;4877310;29;20069;-70
2023/08/07 06:01:17;;;;;;;1.13;0.52;;;;;;;20.41;59.63;99492.53;4877138;29;20131;-70
2023/08/07 06:03:46;;;;;;;0.90;0.50;;;;;;;20.39;59.50;99486.44;4877104;29;20075;-71
2023/08/07 06:06:14;;;;;;;1.23;0.47;;;;;;;20.41;59.63;99502.50;4876827;29;20045;-70
2023/08/07 06:08:42;;;;;;;0.82;0.40;;;;;;;20.41;59.54;99503.34;4877306;29;20052;-70
2023/08/07 06:11:11;;;;;;;1.20;0.50;;;;;;;20.42;59.67;99515.88;4877093;29;20052;-71
2023/08/07 06:13:41;;;;;;;1.25;0.32;;;;;;;20.39;59.48;99510.81;4876823;29;20140;-69
2023/08/07 06:16:09;;;;;;;1.30;0.57;;;;;;;20.38;58.80;99522.69;4876972;29;20086;-70
2023/08/07 06:18:38;;;;;;;1.33;0.70;;;;;;;20.36;58.90;99527.38;4876709;29;20542;-69
2023/08/07 06:21:06;;;;;;;0.95;0.40;;;;;;;20.35;59.02;99523.00;4876702;29;20060;-70
2023/08/07 06:23:36;;;;;;;1.10;0.40;;;;;;;20.34;58.94;99529.44;4876729;29;20481;-70
2023/08/07 06:26:04;;;;;;;1.45;0.57;;;;;;;20.34;58.82;99520.47;4876543;29;20099;-70
2023/08/07 06:28:33;;;;;;;1.00;0.70;;;;;;;20.36;58.91;99532.81;4876740;29;20064;-71
2023/08/07 06:31:04;;;;;;;0.98;0.70;;;;;;;20.35;58.94;99533.84;4876949;29;20053;-71
2023/08/07 06:33:33;;;;;;;0.75;0.50;;;;;;;20.36;59.08;99545.50;4877083;29;20045;-71
2023/08/07 06:36:03;;;;;;;0.55;0.50;;;;;;;20.35;58.87;99539.25;4876677;29;20152;-71
2023/08/07 06:38:32;;;;;;;1.55;0.70;;;;;;;20.37;58.76;99552.66;4876658;29;20053;-71
2023/08/07 06:41:00;;;;;;;1.77;0.60;;;;;;;20.36;58.92;99559.88;4876721;29;20060;-70
2023/08/07 06:43:28;;;;;;;2.85;0.60;;;;;;;20.36;58.55;99565.31;4879339;29;20081;-70
2023/08/07 06:45:58;;;;;;;1.35;0.70;;;;;;;20.36;58.32;99568.03;4875482;29;20057;-71
2023/08/07 06:48:27;;;;;;;1.10;0.45;;;;;;;20.36;59.07;99567.16;4876996;29;20049;-71
2023/08/07 06:50:56;;;;;;;0.88;0.47;;;;;;;20.36;57.99;99567.16;4876939;29;20053;-69
2023/08/07 06:53:24;;;;;;;1.40;0.70;;;;;;;20.34;58.11;99561.94;4877201;29;20053;-70
2023/08/07 06:55:52;;;;;;;1.65;0.60;;;;;;;20.34;58.51;99563.78;4880280;29;20053;-69
2023/08/07 06:58:24;;;;;;;0.68;0.52;;;;;;;20.36;58.38;99573.44;4880061;29;20049;-69
2023/08/07 07:00:52;;;;;;;1.95;0.70;;;;;;;20.37;58.29;99567.03;4880343;29;20059;-70
2023/08/07 07:03:20;;;;;;;1.38;0.63;;;;;;;20.38;58.49;99576.00;4878823;29;20517;-70
2023/08/07 07:05:51;;;;;;;1.30;0.50;;;;;;;20.38;58.79;99568.72;4879929;29;20053;-70
2023/08/07 07:08:19;;;;;;;1.42;0.43;;;;;;;20.40;58.82;99563.13;4879836;29;20483;-69
2023/08/07 07:10:48;;;;;;;1.20;0.47;;;;;;;20.41;58.64;99573.78;4880151;29;20067;-70
2023/08/07 07:13:16;;;;;;;1.63;0.57;;;;;;;20.44;58.68;99570.75;4880282;29;20088;-70
2023/08/07 07:15:44;;;;;;;0.70;0.40;;;;;;;20.45;58.85;99575.16;4879761;29;20423;-69
2023/08/07 07:18:12;;;;;;;0.77;0.60;;;;;;;20.47;58.88;99572.28;4879648;29;20153;-71
2023/08/07 07:20:41;;;;;;;0.73;0.40;;;;;;;20.47;58.91;99578.56;4879607;29;20444;-71
2023/08/07 07:23:10;;;;;;;1.75;0.50;;;;;;;20.49;58.79;99579.22;4880223;29;20475;-70
2023/08/07 07:25:39;;;;;;;0.88;0.57;;;;;;;20.50;58.66;99580.06;4879806;29;20053;-71
2023/08/07 07:28:07;;;;;;;1.38;0.50;;;;;;;20.50;58.89;99583.63;4879449;29;20555;-71
2023/08/07 07:30:35;;;;;;;0.82;0.63;;;;;;;20.50;58.62;99575.50;4879674;29;20398;-70
2023/08/07 07:33:03;;;;;;;1.20;0.70;;;;;;;20.51;58.50;99582.59;4879173;29;20055;-70
2023/08/07 07:35:31;;;;;;;1.25;0.50;;;;;;;20.52;58.56;99584.28;4879515;29;20046;-70
2023/08/07 07:38:00;;;;;;;0.55;0.43;;;;;;;20.53;58.01;99594.09;4879310;29;20049;-71
2023/08/07 07:40:29;;;;;;;0.95;0.50;;;;;;;20.51;57.97;99596.13;4877781;29;20065;-70
2023/08/07 07:42:57;;;;;;;1.77;0.52;;;;;;;20.52;58.39;99600.53;4879147;29;20052;-70
2023/08/07 07:45:25;;;;;;;0.65;0.40;;;;;;;20.51;58.33;99593.44;4877794;29;20049;-69
2023/08/07 07:47:53;;;;;;;1.27;0.40;;;;;;;20.54;58.57;99598.50;4877723;29;20056;-69
2023/08/07 07:50:22;;;;;;;1.25;0.50;;;;;;;20.55;58.49;99611.03;4879043;29;20522;-69
2023/08/07 07:52:50;;;;;;;1.85;0.60;;;;;;;20.55;58.04;99621.84;4879093;29;20468;-69
2023/08/07 07:55:18;;;;;;;1.45;0.50;;;;;;;20.55;58.44;99611.03;4879285;29;20057;-71
2023/08/07 07:57:48;;;;;;;0.60;0.40;;;;;;;20.57;58.26;99619.00;4879354;29;20491;-70
2023/08/07 08:00:17;;;;;;;0.77;0.40;;;;;;;20.57;58.57;99621.72;4878737;29;20059;-70
2023/08/07 08:02:46;;;;;;;0.82;0.38;;;;;;;20.56;58.06;99626.28;4879013;29;20392;-70
2023/08/07 08:05:16;;;;;;;0.60;0.30;;;;;;;20.60;58.24;99617.81;4877775;29;20419;-70
2023/08/07 08:07:44;;;;;;;1.27;0.60;;;;;;;20.60;57.78;99623.22;4878789;29;20054;-70
2023/08/07 08:10:13;;;;;;;1.92;0.50;;;;;;;20.62;58.26;99642.84;4878618;29;20534;-71
2023/08/07 08:12:41;;;;;;;0.50;0.30;;;;;;;20.61;58.07;99630.34;4878535;29;20108;-70
2023/08/07 08:15:11;;;;;;;1.23;0.40;;;;;;;20.63;58.03;99639.13;4878385;29;20068;-70
2023/08/07 08:17:40;;;;;;;0.68;0.30;;;;;;;20.63;57.89;99648.09;4878798;29;20049;-69
2023/08/07 08:20:09;;;;;;;0.85;0.38;;;;;;;20.64;57.93;99635.41;4878510;29;20053;-69
2023/08/07 08:22:37;;;;;;;1.42;0.35;;;;;;;20.65;57.72;99653.34;4878200;29;20403;-70
2023/08/07 08:25:06;;;;;;;0.88;0.30;;;;;;;20.65;57.78;99650.63;4878352;29;20053;-70
2023/08/07 08:27:34;;;;;;;1.38;0.60;;;;;;;20.65;57.78;99664.19;4878132;29;20053;-70
2023/08/07 08:30:03;;;;;;;1.25;0.40;;;;;;;20.66;57.72;99664.03;4878650;29;20045;-70
2023/08/07 08:32:33;;;;;;;0.65;0.40;;;;;;;20.67;57.79;99657.59;4878378;29;20048;-71
2023/08/07 08:35:02;;;;;;;0.88;0.40;;;;;;;20.66;57.48;99655.91;4878175;29;20105;-69
2023/08/07 08:37:30;;;;;;;1.30;0.60;;;;;;;20.69;57.63;99662.84;4878188;29;20045;-70
2023/08/07 08:40:01;;;;;;;1.27;0.40;;;;;;;20.70;57.64;99656.41;4878229;29;20413;-70
2023/08/07 08:42:30;;;;;;;0.95;0.38;;;;;;;20.71;57.81;99674.34;4878369;29;20131;-70
2023/08/07 08:45:00;;;;;;;1.27;0.40;;;;;;;20.69;57.99;99666.41;4878282;29;20136;-70
2023/08/07 08:47:30;;;;;;;0.45;0.28;;;;;;;20.73;57.78;99661.47;4878361;29;20132;-69
2023/08/07 08:50:03;;;;;;;1.23;0.50;;;;;;;20.72;57.86;99666.03;4877779;29;20081;-70
2023/08/07 08:52:32;;;;;;;0.63;0.45;;;;;;;20.72;57.53;99679.59;4877534;29;20088;-70
2023/08/07 08:55:02;;;;;;;0.35;0.30;;;;;;;20.74;57.54;99674.00;4877533;29;20507;-70
2023/08/07 08:57:31;;;;;;;0.30;0.30;;;;;;;20.75;57.38;99678.41;4877608;29;20053;-71
2023/08/07 09:00:01;;;;;;;0.40;0.30;;;;;;;20.76;57.13;99680.13;4877593;29;20080;-70
2023/08/07 09:02:29;;;;;;;0.20;0.20;;;;;;;20.76;57.23;99704.50;4877696;29;20088;-71
2023/08/07 09:04:58;;;;;;;0.52;0.43;;;;;;;20.75;56.91;99681.97;4877476;29;20064;-70
2023/08/07 09:07:28;;;;;;;0.55;0.25;;;;;;;20.76;57.20;99686.38;4877683;29;20080;-70
2023/08/07 09:10:00;;;;;;;1.02;0.35;;;;;;;20.79;57.23;99683.31;4877454;29;20064;-71
2023/08/07 09:12:33;;;;;;;0.52;0.30;;;;;;;20.78;57.21;99687.06;4877685;29;20117;-70
2023/08/07 09:15:04;;;;;;;0.93;0.38;;;;;;;20.79;57.09;99688.75;4877498;29;20113;-70
2023/08/07 09:17:37;;;;;;;0.68;0.40;;;;;;;20.80;57.23;99690.44;4876707;29;20053;-71
2023/08/07 09:20:07;;;;;;;0.40;0.25;;;;;;;20.82;57.16;99692.97;4877775;29;20109;-71
2023/08/07 09:22:37;;;;;;;0.65;0.45;;;;;;;20.83;57.38;99687.38;4877525;29;20049;-70
2023/08/07 09:25:07;;;;;;;1.67;0.40;;;;;;;20.83;57.40;99695.50;4877267;29;20075;-71
2023/08/07 09:27:36;;;;;;;0.88;0.40;;;;;;;20.85;57.27;99700.78;4877303;29;20057;-71
2023/08/07 09:30:08;;;;;;;0.70;0.30;;;;;;;20.88;57.26;99697.72;4877232;29;20144;-71
2023/08/07 09:32:36;;;;;;;0.63;0.43;;;;;;;20.88;57.10;99692.28;4877382;29;20045;-71
2023/08/07 09:35:05;;;;;;;2.58;0.47;;;;;;;20.90;56.94;99684.81;4876860;29;20053;-70
2023/08/07 09:37:43;;;;;;;0.65;0.40;;;;;;;20.91;56.73;99696.50;4876822;29;20196;-71
2023/08/07 09:40:15;;;;;;;0.45;0.30;;;;;;;20.92;57.15;99699.03;4877034;29;20056;-71
2023/08/07 09:42:43;;;;;;;0.37;0.20;;;;;;;20.93;57.20;99706.16;4876846;29;20049;-71
2023/08/07 09:45:21;;;;;;;0.25;0.20;;;;;;;20.95;56.97;99701.44;4876953;29;20049;-70
2023/08/07 09:48:00;;;;;;;0.70;0.20;;;;;;;20.96;56.72;99719.38;4876738;29;20052;-71
2023/08/07 09:50:29;;;;;;;1.27;0.45;;;;;;;20.97;56.55;99720.22;4876424;29;20503;-69
2023/08/07 09:53:01;;;;;;;0.68;0.40;;;;;;;20.96;56.73;99716.69;4876998;29;20076;-71
2023/08/07 09:55:29;;;;;;;1.40;0.22;;;;;;;20.98;56.23;99730.91;4876614;29;20045;-71
2023/08/07 09:57:57;;;;;;;0.30;0.20;;;;;;;20.98;55.77;99725.47;4876891;29;20132;-71
2023/08/07 10:00:26;;;;;;;0.75;0.25;;;;;;;21.00;55.70;99734.28;4876886;29;20105;-71
2023/08/07 10:02:55;;;;;;;0.17;0.17;;;;;;;21.01;55.86;99741.38;4876672;29;20085;-70
2023/08/07 10:05:24;;;;;;;1.42;0.20;;;;;;;21.02;55.87;99734.94;4876444;29;20065;-70
2023/08/07 10:07:54;;;;;;;0.32;0.10;;;;;;;21.04;55.96;99745.66;4876529;29;20056;-70
2023/08/07 10:10:25;;;;;;;0.30;0.20;;;;;;;21.05;55.73;99731.06;4876597;29;20522;-70
2023/08/07 10:12:55;;;;;;;0.68;0.20;;;;;;;21.07;55.93;99731.72;4876764;29;20060;-70
2023/08/07 10:15:26;;;;;;;0.60;0.20;;;;;;;21.07;55.77;99735.28;4876437;29;20470;-70
2023/08/07 10:17:54;;;;;;;0.13;0.10;;;;;;;21.08;55.57;99726.13;4876436;29;20432;-70
2023/08/07 10:20:25;;;;;;;0.43;0.20;;;;;;;21.10;55.86;99734.94;4876263;29;20090;-70
2023/08/07 10:22:54;;;;;;;0.20;0.20;;;;;;;21.09;55.55;99730.53;4876413;29;20053;-70
2023/08/07 10:25:26;;;;;;;0.55;0.20;;;;;;;21.12;54.97;99727.47;4876440;29;20068;-70
2023/08/07 10:27:56;;;;;;;0.60;0.20;;;;;;;21.15;54.94;99726.31;4876390;29;20049;-70
2023/08/07 10:30:25;;;;;;;0.10;0.10;;;;;;;21.18;54.89;99727.81;4879957;29;20109;-70
2023/08/07 10:32:55;;;;;;;0.52;0.20;;;;;;;21.19;55.30;99738.47;4879982;29;20053;-70
2023/08/07 10:35:26;;;;;;;0.90;0.20;;;;;;;21.21;54.87;99730.16;4879873;29;20060;-70
2023/08/07 10:37:54;;;;;;;0.80;0.20;;;;;;;21.23;54.77;99734.44;4879934;29;20140;-71
2023/08/07 10:40:23;;;;;;;0.47;0.10;;;;;;;21.25;55.30;99759.50;4879832;29;20076;-70
2023/08/07 10:42:56;;;;;;;0.30;0.13;;;;;;;21.27;54.98;99746.63;4879974;29;20439;-70
2023/08/07 10:45:29;;;;;;;0.93;0.20;;;;;;;21.27;55.14;99745.78;4879561;29;20060;-70
2023/08/07 10:48:12;;;;;;;0.40;0.20;;;;;;;21.27;54.99;99745.78;4880189;29;20140;-70
2023/08/07 10:50:52;;;;;;;0.43;0.20;;;;;;;21.27;54.94;99748.50;4878541;29;20064;-70
2023/08/07 10:53:21;;;;;;;0.52;0.20;;;;;;;21.28;55.10;99747.47;4879662;29;20529;-71
2023/08/07 10:55:50;;;;;;;1.55;0.28;;;;;;;21.31;54.81;99755.25;4879554;29;20052;-71
2023/08/07 10:58:27;;;;;;;1.48;0.20;;;;;;;21.32;54.67;99754.25;4879554;29;20048;-71
2023/08/07 11:01:17;;;;;;;0.20;0.20;;;;;;;21.32;54.65;99765.09;4879993;29;20144;-71
2023/08/07 11:03:46;;;;;;;0.50;0.20;;;;;;;21.31;54.43;99758.81;4879936;29;20053;-71
2023/08/07 11:06:14;;;;;;;0.40;0.10;;;;;;;21.33;54.46;99769.53;4879585;29;20068;-70
2023/08/07 11:08:42;;;;;;;0.30;0.20;;;;;;;21.34;54.44;99777.47;4879335;29;20045;-71
2023/08/07 11:11:10;;;;;;;0.50;0.20;;;;;;;21.35;54.22;99770.19;4879616;29;20055;-71
2023/08/07 11:13:40;;;;;;;1.00;0.10;;;;;;;21.35;54.18;99775.63;4879385;29;20100;-71
2023/08/07 11:16:08;;;;;;;1.02;0.20;;;;;;;21.35;54.33;99784.59;4879226;29;20594;-71
2023/08/07 11:18:41;;;;;;;1.45;0.10;;;;;;;21.35;54.62;99771.03;4879414;29;20045;-71
2023/08/07 11:21:11;;;;;;;0.45;0.20;;;;;;;21.37;54.54;99757.28;4879498;29;20053;-71
2023/08/07 11:23:39;;;;;;;0.20;0.10;;;;;;;21.39;54.42;99783.22;4879500;29;20049;-71
2023/08/07 11:26:10;;;;;;;0.20;0.10;;;;;;;21.42;54.58;99776.59;4878915;29;20501;-71
2023/08/07 11:28:40;;;;;;;0.05;0.05;;;;;;;21.45;54.42;99776.28;4879049;29;20060;-71
2023/08/07 11:31:12;;;;;;;0.93;0.20;;;;;;;21.46;54.13;99772.53;4878945;29;20439;-71
2023/08/07 11:33:41;;;;;;;0.68;0.20;;;;;;;21.47;54.19;99784.22;4879135;29;20068;-71
2023/08/07 11:36:13;;;;;;;0.32;0.20;;;;;;;21.48;54.02;99778.63;4879222;29;20192;-71
2023/08/07 11:38:43;;;;;;;0.10;0.10;;;;;;;21.49;53.92;99783.03;4879227;29;20060;-71
2023/08/07 11:41:13;;;;;;;0.60;0.10;;;;;;;21.49;53.45;99763.19;4878956;29;20084;-71
2023/08/07 11:43:46;;;;;;;0.10;0.10;;;;;;;21.51;53.57;99767.41;4878879;29;20140;-71